sensor_id;sensor_type;location;lat;lon;timestamp;temperature;humidity
59208;DHT22;44977;53.132;6.408;2023-03-14T00:03:20;9.40;99.90
59208;DHT22;44977;53.132;6.408;2023-03-14T00:08:20;9.40;99.90
59208;DHT22;44977;53.132;6.408;2023-03-14T00:13:21;9.40;99.90
59208;DHT22;44977;53.132;6.408;2023-03-14T00:18:22;9.60;99.90
59208;DHT22;44977;53.132;6.408;2023-03-14T00:23:23;9.70;99.90
59208;DHT22;44977;53.132;6.408;2023-03-14T00:28:24;9.70;99.90
59208;DHT22;44977;53.132;6.408;2023-03-14T00:33:25;9.80;99.90
59208;DHT22;44977;53.132;6.408;2023-03-14T00:38:26;9.80;99.90
59208;DHT22;44977;53.132;6.408;2023-03-14T00:43:27;9.90;99.90
59208;DHT22;44977;53.132;6.408;2023-03-14T00:48:28;9.90;99.90
59208;DHT22;44977;53.132;6.408;2023-03-14T00:53:28;9.90;99.90
59208;DHT22;44977;53.132;6.408;2023-03-14T00:58:29;9.90;99.90
59208;DHT22;44977;53.132;6.408;2023-03-14T01:03:30;9.90;99.90
59208;DHT22;44977;53.132;6.408;2023-03-14T01:08:30;10.00;99.90
59208;DHT22;44977;53.132;6.408;2023-03-14T01:13:31;10.00;99.90
59208;DHT22;44977;53.132;6.408;2023-03-14T01:18:33;10.00;99.90
59208;DHT22;44977;53.132;6.408;2023-03-14T01:23:35;10.10;99.90
59208;DHT22;44977;53.132;6.408;2023-03-14T01:28:37;10.10;99.90
59208;DHT22;44977;53.132;6.408;2023-03-14T01:33:38;10.10;99.90
59208;DHT22;44977;53.132;6.408;2023-03-14T01:38:40;10.10;99.90
59208;DHT22;44977;53.132;6.408;2023-03-14T01:43:41;10.20;99.90
59208;DHT22;44977;53.132;6.408;2023-03-14T01:48:52;10.20;99.90
59208;DHT22;44977;53.132;6.408;2023-03-14T01:54:44;10.30;99.90
59208;DHT22;44977;53.132;6.408;2023-03-14T01:59:20;10.30;99.90
59208;DHT22;44977;53.132;6.408;2023-03-14T02:04:21;10.30;99.90
59208;DHT22;44977;53.132;6.408;2023-03-14T02:09:23;10.30;99.90
59208;DHT22;44977;53.132;6.408;2023-03-14T02:14:34;10.20;99.90
59208;DHT22;44977;53.132;6.408;2023-03-14T02:19:52;10.20;99.90
59208;DHT22;44977;53.132;6.408;2023-03-14T02:30:11;10.10;99.90
59208;DHT22;44977;53.132;6.408;2023-03-14T02:35:15;10.10;99.90
59208;DHT22;44977;53.132;6.408;2023-03-14T02:40:18;10.10;99.90
59208;DHT22;44977;53.132;6.408;2023-03-14T02:50:25;10.00;99.90
59208;DHT22;44977;53.132;6.408;2023-03-14T02:55:26;10.00;99.90
59208;DHT22;44977;53.132;6.408;2023-03-14T03:00:27;10.00;99.90
59208;DHT22;44977;53.132;6.408;2023-03-14T03:05:28;10.00;99.90
59208;DHT22;44977;53.132;6.408;2023-03-14T03:10:29;9.80;99.90
59208;DHT22;44977;53.132;6.408;2023-03-14T03:15:30;9.80;99.90
59208;DHT22;44977;53.132;6.408;2023-03-14T03:20:31;9.70;99.90
59208;DHT22;44977;53.132;6.408;2023-03-14T03:25:32;9.60;99.90
59208;DHT22;44977;53.132;6.408;2023-03-14T03:30:34;9.50;99.90
59208;DHT22;44977;53.132;6.408;2023-03-14T03:35:49;9.50;99.90
59208;DHT22;44977;53.132;6.408;2023-03-14T03:40:50;9.50;99.90
59208;DHT22;44977;53.132;6.408;2023-03-14T03:45:50;9.40;99.90
59208;DHT22;44977;53.132;6.408;2023-03-14T03:50:51;9.40;99.90
59208;DHT22;44977;53.132;6.408;2023-03-14T03:55:52;9.40;99.90
59208;DHT22;44977;53.132;6.408;2023-03-14T04:00:52;9.40;99.90
59208;DHT22;44977;53.132;6.408;2023-03-14T04:06:08;9.40;99.90
59208;DHT22;44977;53.132;6.408;2023-03-14T04:11:09;9.40;99.90
59208;DHT22;44977;53.132;6.408;2023-03-14T04:16:16;9.40;99.90
59208;DHT22;44977;53.132;6.408;2023-03-14T04:21:18;9.40;99.90
59208;DHT22;44977;53.132;6.408;2023-03-14T04:26:18;9.30;99.90
59208;DHT22;44977;53.132;6.408;2023-03-14T04:31:21;9.30;99.90
59208;DHT22;44977;53.132;6.408;2023-03-14T04:36:21;9.30;99.90
59208;DHT22;44977;53.132;6.408;2023-03-14T04:41:22;9.30;99.90
59208;DHT22;44977;53.132;6.408;2023-03-14T04:46:23;9.20;99.90
59208;DHT22;44977;53.132;6.408;2023-03-14T04:51:23;9.20;99.90
59208;DHT22;44977;53.132;6.408;2023-03-14T04:56:27;9.20;99.90
59208;DHT22;44977;53.132;6.408;2023-03-14T05:01:28;9.20;99.90
59208;DHT22;44977;53.132;6.408;2023-03-14T05:06:28;9.20;99.90
59208;DHT22;44977;53.132;6.408;2023-03-14T05:11:29;9.20;99.90
59208;DHT22;44977;53.132;6.408;2023-03-14T05:16:30;9.20;99.90
59208;DHT22;44977;53.132;6.408;2023-03-14T05:21:31;9.20;99.90
59208;DHT22;44977;53.132;6.408;2023-03-14T05:26:32;9.10;99.90
59208;DHT22;44977;53.132;6.408;2023-03-14T05:31:33;9.10;99.90
59208;DHT22;44977;53.132;6.408;2023-03-14T05:36:33;9.10;99.90
59208;DHT22;44977;53.132;6.408;2023-03-14T05:41:34;9.10;99.90
59208;DHT22;44977;53.132;6.408;2023-03-14T05:46:36;9.00;99.90
59208;DHT22;44977;53.132;6.408;2023-03-14T05:51:36;9.00;99.90
59208;DHT22;44977;53.132;6.408;2023-03-14T05:56:37;9.00;99.90
59208;DHT22;44977;53.132;6.408;2023-03-14T06:01:38;9.00;99.90
59208;DHT22;44977;53.132;6.408;2023-03-14T06:06:38;9.00;99.90
59208;DHT22;44977;53.132;6.408;2023-03-14T06:11:39;9.00;99.90
59208;DHT22;44977;53.132;6.408;2023-03-14T06:16:40;9.00;99.90
59208;DHT22;44977;53.132;6.408;2023-03-14T06:21:40;9.00;99.90
59208;DHT22;44977;53.132;6.408;2023-03-14T06:26:41;9.00;99.90
59208;DHT22;44977;53.132;6.408;2023-03-14T06:31:42;9.00;99.90
59208;DHT22;44977;53.132;6.408;2023-03-14T06:36:42;8.90;99.90
59208;DHT22;44977;53.132;6.408;2023-03-14T06:41:43;8.50;99.90
59208;DHT22;44977;53.132;6.408;2023-03-14T06:46:44;8.20;99.90
59208;DHT22;44977;53.132;6.408;2023-03-14T06:51:44;7.90;99.90
59208;DHT22;44977;53.132;6.408;2023-03-14T06:56:45;7.70;99.90
59208;DHT22;44977;53.132;6.408;2023-03-14T07:01:46;7.50;99.90
59208;DHT22;44977;53.132;6.408;2023-03-14T07:06:48;7.20;99.90
59208;DHT22;44977;53.132;6.408;2023-03-14T07:11:49;7.00;99.90
59208;DHT22;44977;53.132;6.408;2023-03-14T07:16:49;6.70;99.90
59208;DHT22;44977;53.132;6.408;2023-03-14T07:21:50;6.40;99.90
59208;DHT22;44977;53.132;6.408;2023-03-14T07:26:51;6.20;99.90
59208;DHT22;44977;53.132;6.408;2023-03-14T07:31:52;6.10;99.90
59208;DHT22;44977;53.132;6.408;2023-03-14T07:36:53;5.80;99.90
59208;DHT22;44977;53.132;6.408;2023-03-14T07:41:53;5.80;99.90
59208;DHT22;44977;53.132;6.408;2023-03-14T07:46:54;5.60;99.90
59208;DHT22;44977;53.132;6.408;2023-03-14T07:51:55;5.60;99.90
59208;DHT22;44977;53.132;6.408;2023-03-14T07:56:55;5.50;99.90
59208;DHT22;44977;53.132;6.408;2023-03-14T08:01:56;5.50;99.90
59208;DHT22;44977;53.132;6.408;2023-03-14T08:06:57;5.40;99.90
59208;DHT22;44977;53.132;6.408;2023-03-14T08:11:57;5.50;99.90
59208;DHT22;44977;53.132;6.408;2023-03-14T08:16:58;5.50;99.90
59208;DHT22;44977;53.132;6.408;2023-03-14T08:21:59;5.50;99.90
59208;DHT22;44977;53.132;6.408;2023-03-14T08:26:59;5.60;99.90
59208;DHT22;44977;53.132;6.408;2023-03-14T08:32:00;5.60;99.90
59208;DHT22;44977;53.132;6.408;2023-03-14T08:37:01;5.60;99.90
59208;DHT22;44977;53.132;6.408;2023-03-14T08:42:01;5.70;99.90
59208;DHT22;44977;53.132;6.408;2023-03-14T08:47:02;5.80;99.90
59208;DHT22;44977;53.132;6.408;2023-03-14T08:52:04;5.90;99.90
59208;DHT22;44977;53.132;6.408;2023-03-14T08:57:04;6.00;99.90
59208;DHT22;44977;53.132;6.408;2023-03-14T09:02:05;6.10;99.90
59208;DHT22;44977;53.132;6.408;2023-03-14T09:07:07;6.10;99.90
59208;DHT22;44977;53.132;6.408;2023-03-14T09:12:07;6.20;99.90
59208;DHT22;44977;53.132;6.408;2023-03-14T09:17:08;6.40;99.90
59208;DHT22;44977;53.132;6.408;2023-03-14T09:22:09;6.50;99.90
59208;DHT22;44977;53.132;6.408;2023-03-14T09:27:09;6.70;99.90
59208;DHT22;44977;53.132;6.408;2023-03-14T09:32:10;6.70;99.90
59208;DHT22;44977;53.132;6.408;2023-03-14T09:37:11;6.70;99.90
59208;DHT22;44977;53.132;6.408;2023-03-14T09:42:16;6.70;99.90
59208;DHT22;44977;53.132;6.408;2023-03-14T09:47:18;6.60;99.90
59208;DHT22;44977;53.132;6.408;2023-03-14T09:52:40;6.60;99.90
59208;DHT22;44977;53.132;6.408;2023-03-14T09:57:44;6.60;99.90
59208;DHT22;44977;53.132;6.408;2023-03-14T10:02:53;6.60;99.90
59208;DHT22;44977;53.132;6.408;2023-03-14T10:07:55;6.50;99.90
59208;DHT22;44977;53.132;6.408;2023-03-14T10:13:23;6.40;99.90
59208;DHT22;44977;53.132;6.408;2023-03-14T10:18:24;6.40;99.90
59208;DHT22;44977;53.132;6.408;2023-03-14T10:23:28;6.50;99.90
59208;DHT22;44977;53.132;6.408;2023-03-14T10:28:32;6.50;99.90
59208;DHT22;44977;53.132;6.408;2023-03-14T10:33:36;6.60;99.90
59208;DHT22;44977;53.132;6.408;2023-03-14T10:38:37;6.60;99.90
59208;DHT22;44977;53.132;6.408;2023-03-14T10:43:37;6.60;99.90
59208;DHT22;44977;53.132;6.408;2023-03-14T10:48:39;6.60;99.90
59208;DHT22;44977;53.132;6.408;2023-03-14T10:54:13;6.90;99.90
59208;DHT22;44977;53.132;6.408;2023-03-14T10:59:15;6.90;99.90
59208;DHT22;44977;53.132;6.408;2023-03-14T11:14:55;7.00;98.70
59208;DHT22;44977;53.132;6.408;2023-03-14T11:31:27;7.00;95.00
59208;DHT22;44977;53.132;6.408;2023-03-14T11:36:39;7.00;94.00
59208;DHT22;44977;53.132;6.408;2023-03-14T11:41:46;7.20;92.60
59208;DHT22;44977;53.132;6.408;2023-03-14T11:46:55;7.30;90.10
59208;DHT22;44977;53.132;6.408;2023-03-14T11:52:00;7.20;90.10
59208;DHT22;44977;53.132;6.408;2023-03-14T11:57:04;7.20;90.10
59208;DHT22;44977;53.132;6.408;2023-03-14T12:02:22;7.30;90.40
59208;DHT22;44977;53.132;6.408;2023-03-14T12:12:59;7.50;87.80
59208;DHT22;44977;53.132;6.408;2023-03-14T12:17:59;7.40;89.10
59208;DHT22;44977;53.132;6.408;2023-03-14T12:23:05;7.30;88.90
59208;DHT22;44977;53.132;6.408;2023-03-14T12:28:21;7.40;90.70
59208;DHT22;44977;53.132;6.408;2023-03-14T12:33:29;7.40;86.10
59208;DHT22;44977;53.132;6.408;2023-03-14T12:43:36;7.70;83.50
59208;DHT22;44977;53.132;6.408;2023-03-14T12:48:39;7.70;85.70
59208;DHT22;44977;53.132;6.408;2023-03-14T12:54:09;7.80;82.10
59208;DHT22;44977;53.132;6.408;2023-03-14T13:14:33;7.90;84.40
59208;DHT22;44977;53.132;6.408;2023-03-14T13:19:34;7.80;80.10
59208;DHT22;44977;53.132;6.408;2023-03-14T13:24:35;7.90;82.10
59208;DHT22;44977;53.132;6.408;2023-03-14T13:29:36;7.80;76.60
59208;DHT22;44977;53.132;6.408;2023-03-14T13:34:37;7.80;75.50
59208;DHT22;44977;53.132;6.408;2023-03-14T13:39:39;7.80;76.90
59208;DHT22;44977;53.132;6.408;2023-03-14T13:44:40;7.70;77.60
59208;DHT22;44977;53.132;6.408;2023-03-14T13:49:41;7.60;79.10
59208;DHT22;44977;53.132;6.408;2023-03-14T13:54:42;7.60;80.80
59208;DHT22;44977;53.132;6.408;2023-03-14T13:59:43;7.50;78.30
59208;DHT22;44977;53.132;6.408;2023-03-14T14:04:44;7.40;78.30
59208;DHT22;44977;53.132;6.408;2023-03-14T14:09:48;7.20;77.00
59208;DHT22;44977;53.132;6.408;2023-03-14T14:15:00;7.00;75.60
59208;DHT22;44977;53.132;6.408;2023-03-14T14:20:05;7.00;77.40
59208;DHT22;44977;53.132;6.408;2023-03-14T14:25:13;7.00;80.00
59208;DHT22;44977;53.132;6.408;2023-03-14T14:35:30;6.90;82.30
59208;DHT22;44977;53.132;6.408;2023-03-14T14:40:31;6.90;85.10
59208;DHT22;44977;53.132;6.408;2023-03-14T14:45:34;6.70;90.20
59208;DHT22;44977;53.132;6.408;2023-03-14T14:50:48;6.60;90.50
59208;DHT22;44977;53.132;6.408;2023-03-14T14:55:55;6.50;90.50
59208;DHT22;44977;53.132;6.408;2023-03-14T15:01:02;6.60;86.70
59208;DHT22;44977;53.132;6.408;2023-03-14T15:06:04;6.80;83.90
59208;DHT22;44977;53.132;6.408;2023-03-14T15:11:05;6.90;82.30
59208;DHT22;44977;53.132;6.408;2023-03-14T15:16:12;6.90;81.70
59208;DHT22;44977;53.132;6.408;2023-03-14T15:21:14;6.80;84.30
59208;DHT22;44977;53.132;6.408;2023-03-14T15:26:20;6.80;89.50
59208;DHT22;44977;53.132;6.408;2023-03-14T15:31:21;6.80;91.80
59208;DHT22;44977;53.132;6.408;2023-03-14T15:36:25;6.90;89.70
59208;DHT22;44977;53.132;6.408;2023-03-14T15:41:27;6.80;85.80
59208;DHT22;44977;53.132;6.408;2023-03-14T15:46:28;6.70;87.00
59208;DHT22;44977;53.132;6.408;2023-03-14T15:51:29;6.40;86.10
59208;DHT22;44977;53.132;6.408;2023-03-14T15:56:29;6.30;88.60
59208;DHT22;44977;53.132;6.408;2023-03-14T16:01:31;6.20;89.90
59208;DHT22;44977;53.132;6.408;2023-03-14T16:06:32;6.10;90.40
59208;DHT22;44977;53.132;6.408;2023-03-14T16:11:32;6.00;91.40
59208;DHT22;44977;53.132;6.408;2023-03-14T16:16:33;5.90;94.30
59208;DHT22;44977;53.132;6.408;2023-03-14T16:21:34;5.60;96.20
59208;DHT22;44977;53.132;6.408;2023-03-14T16:26:34;5.40;98.30
59208;DHT22;44977;53.132;6.408;2023-03-14T16:31:36;5.30;99.90
59208;DHT22;44977;53.132;6.408;2023-03-14T16:36:42;5.20;99.90
59208;DHT22;44977;53.132;6.408;2023-03-14T16:41:43;5.10;99.90
59208;DHT22;44977;53.132;6.408;2023-03-14T16:46:43;5.10;99.90
59208;DHT22;44977;53.132;6.408;2023-03-14T16:51:44;5.00;99.90
59208;DHT22;44977;53.132;6.408;2023-03-14T16:56:45;5.00;99.90
59208;DHT22;44977;53.132;6.408;2023-03-14T17:01:47;4.90;99.90
59208;DHT22;44977;53.132;6.408;2023-03-14T17:06:49;5.00;99.90
59208;DHT22;44977;53.132;6.408;2023-03-14T17:11:51;5.00;99.90
59208;DHT22;44977;53.132;6.408;2023-03-14T17:16:51;4.90;99.90
59208;DHT22;44977;53.132;6.408;2023-03-14T17:21:53;4.90;99.90
59208;DHT22;44977;53.132;6.408;2023-03-14T17:26:54;4.90;99.90
59208;DHT22;44977;53.132;6.408;2023-03-14T17:31:54;4.80;99.90
59208;DHT22;44977;53.132;6.408;2023-03-14T17:36:55;4.80;99.90
59208;DHT22;44977;53.132;6.408;2023-03-14T17:41:56;4.70;99.90
59208;DHT22;44977;53.132;6.408;2023-03-14T17:46:58;4.60;99.90
59208;DHT22;44977;53.132;6.408;2023-03-14T17:51:58;4.60;99.90
59208;DHT22;44977;53.132;6.408;2023-03-14T17:56:59;4.50;99.90
59208;DHT22;44977;53.132;6.408;2023-03-14T18:02:00;4.50;99.90
59208;DHT22;44977;53.132;6.408;2023-03-14T18:07:00;4.40;99.90
59208;DHT22;44977;53.132;6.408;2023-03-14T18:12:01;4.30;99.90
59208;DHT22;44977;53.132;6.408;2023-03-14T18:17:02;4.30;99.90
59208;DHT22;44977;53.132;6.408;2023-03-14T18:22:03;4.20;99.90
59208;DHT22;44977;53.132;6.408;2023-03-14T18:27:05;4.20;99.90
59208;DHT22;44977;53.132;6.408;2023-03-14T18:32:06;4.10;99.90
59208;DHT22;44977;53.132;6.408;2023-03-14T18:37:06;4.00;99.90
59208;DHT22;44977;53.132;6.408;2023-03-14T18:42:07;4.00;99.90
59208;DHT22;44977;53.132;6.408;2023-03-14T18:47:08;3.90;99.90
59208;DHT22;44977;53.132;6.408;2023-03-14T18:52:08;3.80;99.90
59208;DHT22;44977;53.132;6.408;2023-03-14T18:57:09;3.80;99.90
59208;DHT22;44977;53.132;6.408;2023-03-14T19:02:10;3.80;99.90
59208;DHT22;44977;53.132;6.408;2023-03-14T19:07:11;3.70;99.90
59208;DHT22;44977;53.132;6.408;2023-03-14T19:12:13;3.70;99.90
59208;DHT22;44977;53.132;6.408;2023-03-14T19:17:14;3.70;99.90
59208;DHT22;44977;53.132;6.408;2023-03-14T19:22:14;3.70;99.90
59208;DHT22;44977;53.132;6.408;2023-03-14T19:27:15;3.70;99.90
59208;DHT22;44977;53.132;6.408;2023-03-14T19:32:17;3.70;99.90
59208;DHT22;44977;53.132;6.408;2023-03-14T19:37:18;3.60;99.90
59208;DHT22;44977;53.132;6.408;2023-03-14T19:42:18;3.60;99.90
59208;DHT22;44977;53.132;6.408;2023-03-14T19:47:19;3.50;99.90
59208;DHT22;44977;53.132;6.408;2023-03-14T19:52:20;3.50;99.90
59208;DHT22;44977;53.132;6.408;2023-03-14T19:57:20;3.40;99.90
59208;DHT22;44977;53.132;6.408;2023-03-14T20:02:21;3.30;99.90
59208;DHT22;44977;53.132;6.408;2023-03-14T20:07:22;3.30;99.90
59208;DHT22;44977;53.132;6.408;2023-03-14T20:12:23;3.30;99.90
59208;DHT22;44977;53.132;6.408;2023-03-14T20:17:23;3.20;99.90
59208;DHT22;44977;53.132;6.408;2023-03-14T20:22:24;3.10;99.90
59208;DHT22;44977;53.132;6.408;2023-03-14T20:27:25;3.10;99.90
59208;DHT22;44977;53.132;6.408;2023-03-14T20:32:25;3.10;99.90
59208;DHT22;44977;53.132;6.408;2023-03-14T20:37:27;3.10;99.90
59208;DHT22;44977;53.132;6.408;2023-03-14T20:42:28;3.10;99.90
59208;DHT22;44977;53.132;6.408;2023-03-14T20:47:29;3.10;99.90
59208;DHT22;44977;53.132;6.408;2023-03-14T20:52:29;3.10;99.90
59208;DHT22;44977;53.132;6.408;2023-03-14T20:57:30;3.10;99.90
59208;DHT22;44977;53.132;6.408;2023-03-14T21:02:31;3.10;99.90
59208;DHT22;44977;53.132;6.408;2023-03-14T21:07:33;3.10;99.90
59208;DHT22;44977;53.132;6.408;2023-03-14T21:12:41;3.10;99.90
59208;DHT22;44977;53.132;6.408;2023-03-14T21:17:41;3.00;99.90
59208;DHT22;44977;53.132;6.408;2023-03-14T21:22:42;3.00;99.90
59208;DHT22;44977;53.132;6.408;2023-03-14T21:27:43;3.00;99.90
59208;DHT22;44977;53.132;6.408;2023-03-14T21:32:43;3.00;99.90
59208;DHT22;44977;53.132;6.408;2023-03-14T21:37:44;2.90;99.90
59208;DHT22;44977;53.132;6.408;2023-03-14T21:42:45;3.00;99.90
59208;DHT22;44977;53.132;6.408;2023-03-14T21:47:46;3.10;99.90
59208;DHT22;44977;53.132;6.408;2023-03-14T21:52:47;3.00;99.90
59208;DHT22;44977;53.132;6.408;2023-03-14T21:57:48;3.00;99.90
59208;DHT22;44977;53.132;6.408;2023-03-14T22:02:50;3.00;99.90
59208;DHT22;44977;53.132;6.408;2023-03-14T22:07:54;3.00;99.90
59208;DHT22;44977;53.132;6.408;2023-03-14T22:12:54;3.00;99.90
59208;DHT22;44977;53.132;6.408;2023-03-14T22:17:57;2.90;99.90
59208;DHT22;44977;53.132;6.408;2023-03-14T22:22:57;2.90;99.90
59208;DHT22;44977;53.132;6.408;2023-03-14T22:27:58;2.90;99.90
59208;DHT22;44977;53.132;6.408;2023-03-14T22:32:59;2.80;99.90
59208;DHT22;44977;53.132;6.408;2023-03-14T22:38:00;2.80;99.90
59208;DHT22;44977;53.132;6.408;2023-03-14T22:43:00;2.80;99.90
59208;DHT22;44977;53.132;6.408;2023-03-14T22:48:01;2.70;99.90
59208;DHT22;44977;53.132;6.408;2023-03-14T22:53:02;2.70;99.90
59208;DHT22;44977;53.132;6.408;2023-03-14T22:58:02;2.70;99.90
59208;DHT22;44977;53.132;6.408;2023-03-14T23:03:03;2.70;99.90
59208;DHT22;44977;53.132;6.408;2023-03-14T23:08:04;2.70;99.90
59208;DHT22;44977;53.132;6.408;2023-03-14T23:13:05;2.70;99.90
59208;DHT22;44977;53.132;6.408;2023-03-14T23:18:07;2.70;99.90
59208;DHT22;44977;53.132;6.408;2023-03-14T23:23:08;2.80;99.90
59208;DHT22;44977;53.132;6.408;2023-03-14T23:28:08;2.80;99.90
59208;DHT22;44977;53.132;6.408;2023-03-14T23:33:09;2.80;99.90
59208;DHT22;44977;53.132;6.408;2023-03-14T23:38:10;2.90;99.90
59208;DHT22;44977;53.132;6.408;2023-03-14T23:43:11;2.90;99.90
59208;DHT22;44977;53.132;6.408;2023-03-14T23:48:11;3.00;99.90
59208;DHT22;44977;53.132;6.408;2023-03-14T23:53:12;3.00;99.90
59208;DHT22;44977;53.132;6.408;2023-03-14T23:58:13;3.00;99.90
